Time;durP1;ratioP1;P1;durP2;ratioP2;P2;SDS_P1;SDS_P2;PMS_P1;PMS_P2;Temp;Humidity;BMP_temperature;BMP_pressure;BME280_temperature;BME280_humidity;BME280_pressure;Samples;Min_cycle;Max_cycle;Signal;HPM_P1;HPM_P2
2023/03/17 00:02:40;;;;;;;;;;;;;;;7.41;77.23633;100824.2;;;;-73
2023/03/17 00:05:09;;;;;;;3.7;1.9;;;;;;;;;;;;;-74
2023/03/17 00:07:38;;;;;;;;;;;;;;;7.41;77.37891;100817.6;;;;-74
2023/03/17 00:12:38;;;;;;;;;;;;;;;7.41;77.38086;100807.5;;;;-72
2023/03/17 00:17:38;;;;;;;;;;;;;;;7.41;77.41406;100813.9;;;;-74
2023/03/17 00:22:38;;;;;;;;;;;;;;;7.42;77.3584;100806.4;;;;-74
2023/03/17 00:27:38;;;;;;;;;;;;;;;7.41;77.4668;100806.1;;;;-74
2023/03/17 00:32:38;;;;;;;;;;;;;;;7.36;77.60059;100791.3;;;;-74
2023/03/17 00:35:05;;;;;;;5;1.9;;;;;;;;;;;;;-74
2023/03/17 00:37:38;;;;;;;;;;;;;;;7.3;77.77734;100775.1;;;;-74
2023/03/17 00:42:38;;;;;;;;;;;;;;;7.26;77.91211;100783.3;;;;-73
2023/03/17 00:47:39;;;;;;;;;;;;;;;7.2;78.17676;100779;;;;-74
2023/03/17 00:52:38;;;;;;;;;;;;;;;7.19;78.05273;100786.4;;;;-74
2023/03/17 00:57:38;;;;;;;;;;;;;;;7.15;78.2334;100798.5;;;;-74
2023/03/17 01:02:38;;;;;;;;;;;;;;;7.11;78.50293;100795.5;;;;-74
2023/03/17 01:05:06;;;;;;;4.4;2.2;;;;;;;;;;;;;-73
2023/03/17 01:07:38;;;;;;;;;;;;;;;7.09;78.48633;100779.9;;;;-73
2023/03/17 01:12:38;;;;;;;;;;;;;;;7.08;78.50488;100768.6;;;;-74
2023/03/17 01:17:38;;;;;;;;;;;;;;;7.05;78.5459;100769.6;;;;-74
2023/03/17 01:22:38;;;;;;;;;;;;;;;7.02;78.81348;100772.1;;;;-76
2023/03/17 01:27:41;;;;;;;;;;;;;;;7;78.76465;100769.2;;;;-74
2023/03/17 01:32:38;;;;;;;;;;;;;;;6.98;78.65234;100780.5;;;;-74
2023/03/17 01:35:16;;;;;;;4.7;2.3;;;;;;;;;;;;;-75
2023/03/17 01:37:41;;;;;;;;;;;;;;;6.95;78.9541;100779;;;;-74
2023/03/17 01:42:38;;;;;;;;;;;;;;;6.93;78.92871;100768.7;;;;-73
2023/03/17 01:47:38;;;;;;;;;;;;;;;6.91;79.04492;100748.3;;;;-74
2023/03/17 01:52:39;;;;;;;;;;;;;;;6.9;79.07813;100758.5;;;;-74
2023/03/17 01:57:41;;;;;;;;;;;;;;;6.86;79.23438;100753.7;;;;-73
2023/03/17 02:02:41;;;;;;;;;;;;;;;6.85;79.25391;100739.4;;;;-74
2023/03/17 02:05:11;;;;;;;4.4;2.3;;;;;;;;;;;;;-75
2023/03/17 02:07:38;;;;;;;;;;;;;;;6.83;79.31738;100745.1;;;;-74
2023/03/17 02:12:40;;;;;;;;;;;;;;;6.82;79.24902;100741.7;;;;-75
2023/03/17 02:17:38;;;;;;;;;;;;;;;6.8;79.44336;100731.8;;;;-74
2023/03/17 02:22:38;;;;;;;;;;;;;;;6.79;79.49707;100737.9;;;;-75
2023/03/17 02:27:40;;;;;;;;;;;;;;;6.78;79.57227;100733.5;;;;-76
2023/03/17 02:32:38;;;;;;;;;;;;;;;6.8;79.45313;100728.2;;;;-73
2023/03/17 02:35:10;;;;;;;5.1;3.1;;;;;;;;;;;;;-73
2023/03/17 02:37:40;;;;;;;;;;;;;;;6.8;79.49707;100724.8;;;;-73
2023/03/17 02:42:38;;;;;;;;;;;;;;;6.82;79.38086;100725.1;;;;-74
2023/03/17 02:47:38;;;;;;;;;;;;;;;6.83;79.4375;100720.8;;;;-75
2023/03/17 02:52:38;;;;;;;;;;;;;;;6.84;79.46094;100724.4;;;;-73
2023/03/17 02:57:38;;;;;;;;;;;;;;;6.85;79.47363;100727.5;;;;-74
2023/03/17 03:02:38;;;;;;;;;;;;;;;6.87;79.40039;100729.5;;;;-75
2023/03/17 03:05:11;;;;;;;4.5;2.3;;;;;;;;;;;;;-73
2023/03/17 03:07:38;;;;;;;;;;;;;;;6.89;79.32813;100732.3;;;;-73
2023/03/17 03:12:39;;;;;;;;;;;;;;;6.88;79.31445;100731.5;;;;-74
2023/03/17 03:17:38;;;;;;;;;;;;;;;6.88;79.55566;100723.4;;;;-74
2023/03/17 03:22:38;;;;;;;;;;;;;;;6.9;79.37207;100727.8;;;;-75
2023/03/17 03:27:41;;;;;;;;;;;;;;;6.91;79.42871;100718.5;;;;-74
2023/03/17 03:32:38;;;;;;;;;;;;;;;6.89;79.61426;100720.8;;;;-73
2023/03/17 03:35:11;;;;;;;4.9;2.3;;;;;;;;;;;;;-74
2023/03/17 03:37:38;;;;;;;;;;;;;;;6.91;79.55176;100725.3;;;;-74
2023/03/17 03:42:38;;;;;;;;;;;;;;;6.94;79.53418;100721;;;;-73
2023/03/17 03:47:38;;;;;;;;;;;;;;;6.94;79.62207;100726.5;;;;-74
2023/03/17 03:52:38;;;;;;;;;;;;;;;6.96;79.50684;100730.7;;;;-74
2023/03/17 03:57:38;;;;;;;;;;;;;;;6.96;79.50684;100722;;;;-74
2023/03/17 04:02:38;;;;;;;;;;;;;;;6.98;79.58496;100737.7;;;;-74
2023/03/17 04:05:12;;;;;;;4.7;2.2;;;;;;;;;;;;;-74
2023/03/17 04:07:38;;;;;;;;;;;;;;;6.98;79.46387;100738.1;;;;-75
2023/03/17 04:12:38;;;;;;;;;;;;;;;7;79.34668;100736.7;;;;-75
2023/03/17 04:17:38;;;;;;;;;;;;;;;7.01;79.35059;100736.7;;;;-74
2023/03/17 04:22:38;;;;;;;;;;;;;;;7.06;79.0625;100739.6;;;;-75
2023/03/17 04:27:38;;;;;;;;;;;;;;;7.09;78.99219;100744.3;;;;-74
2023/03/17 04:32:38;;;;;;;;;;;;;;;7.1;78.94922;100738.5;;;;-73
2023/03/17 04:35:15;;;;;;;4.7;2.1;;;;;;;;;;;;;-74
2023/03/17 04:37:38;;;;;;;;;;;;;;;7.12;79.01855;100737.6;;;;-74
2023/03/17 04:42:38;;;;;;;;;;;;;;;7.13;78.96582;100723.9;;;;-74
2023/03/17 04:47:38;;;;;;;;;;;;;;;7.13;79.0332;100720.9;;;;-74
2023/03/17 04:52:38;;;;;;;;;;;;;;;7.17;78.92871;100731.7;;;;-74
2023/03/17 04:57:38;;;;;;;;;;;;;;;7.18;79.04004;100733;;;;-75
2023/03/17 05:02:38;;;;;;;;;;;;;;;7.19;78.82324;100735.4;;;;-74
2023/03/17 05:05:13;;;;;;;6.2;2.3;;;;;;;;;;;;;-74
2023/03/17 05:07:38;;;;;;;;;;;;;;;7.19;79.02148;100732;;;;-74
2023/03/17 05:12:38;;;;;;;;;;;;;;;7.24;78.79883;100734.4;;;;-74
2023/03/17 05:17:38;;;;;;;;;;;;;;;7.23;78.85156;100742.1;;;;-73
2023/03/17 05:22:38;;;;;;;;;;;;;;;7.26;78.63867;100749.9;;;;-74
2023/03/17 05:27:38;;;;;;;;;;;;;;;7.27;78.59473;100744.6;;;;-76
2023/03/17 05:32:39;;;;;;;;;;;;;;;7.28;78.60742;100753.6;;;;-75
2023/03/17 05:35:14;;;;;;;4.7;2.2;;;;;;;;;;;;;-75
2023/03/17 05:37:38;;;;;;;;;;;;;;;7.28;78.71777;100736;;;;-74
2023/03/17 05:42:38;;;;;;;;;;;;;;;7.25;78.91016;100715.6;;;;-74
2023/03/17 05:47:40;;;;;;;;;;;;;;;7.26;78.88965;100709.3;;;;-74
2023/03/17 05:52:38;;;;;;;;;;;;;;;7.28;78.9043;100690.5;;;;-74
2023/03/17 05:57:40;;;;;;;;;;;;;;;7.27;79.20996;100698.8;;;;-74
2023/03/17 06:02:38;;;;;;;;;;;;;;;7.26;79.49609;100703;;;;-74
2023/03/17 06:05:18;;;;;;;4.4;2.1;;;;;;;;;;;;;-74
2023/03/17 06:07:40;;;;;;;;;;;;;;;7.27;79.61621;100711.2;;;;-74
2023/03/17 06:12:38;;;;;;;;;;;;;;;7.26;79.62695;100721.7;;;;-74
2023/03/17 06:17:38;;;;;;;;;;;;;;;7.26;79.56152;100717.5;;;;-75
2023/03/17 06:22:38;;;;;;;;;;;;;;;7.27;79.56152;100739.1;;;;-74
2023/03/17 06:27:38;;;;;;;;;;;;;;;7.28;79.40039;100733.2;;;;-74
2023/03/17 06:32:39;;;;;;;;;;;;;;;7.28;79.57617;100723.2;;;;-74
2023/03/17 06:35:16;;;;;;;5;2.3;;;;;;;;;;;;;-74
2023/03/17 06:37:38;;;;;;;;;;;;;;;7.29;79.57715;100721.1;;;;-73
2023/03/17 06:42:38;;;;;;;;;;;;;;;7.29;79.6875;100713.5;;;;-73
2023/03/17 06:47:38;;;;;;;;;;;;;;;7.31;79.65625;100719;;;;-74
2023/03/17 06:52:38;;;;;;;;;;;;;;;7.35;79.54395;100720;;;;-74
2023/03/17 06:57:38;;;;;;;;;;;;;;;7.37;79.64551;100723;;;;-75
2023/03/17 07:02:38;;;;;;;;;;;;;;;7.41;79.62305;100710.7;;;;-74
2023/03/17 07:05:17;;;;;;;4.6;2.3;;;;;;;;;;;;;-74
2023/03/17 07:07:38;;;;;;;;;;;;;;;7.49;79.42773;100711.8;;;;-74
2023/03/17 07:12:38;;;;;;;;;;;;;;;7.57;79.36426;100721.1;;;;-73
2023/03/17 07:17:41;;;;;;;;;;;;;;;7.67;79.36035;100732.4;;;;-73
2023/03/17 07:22:38;;;;;;;;;;;;;;;7.81;79.0127;100743.4;;;;-73
2023/03/17 07:27:38;;;;;;;;;;;;;;;7.93;78.74707;100755.5;;;;-74
2023/03/17 07:32:40;;;;;;;;;;;;;;;8.03;78.38281;100745;;;;-74
2023/03/17 07:35:19;;;;;;;4.5;2.2;;;;;;;;;;;;;-74
2023/03/17 07:37:38;;;;;;;;;;;;;;;8.14;77.64063;100755;;;;-75
2023/03/17 07:42:38;;;;;;;;;;;;;;;8.3;77.45898;100736.1;;;;-73
2023/03/17 07:47:38;;;;;;;;;;;;;;;8.46;77.04785;100744.8;;;;-74
2023/03/17 07:52:39;;;;;;;;;;;;;;;8.67;77.31641;100751.5;;;;-73
2023/03/17 07:57:38;;;;;;;;;;;;;;;8.83;76.18848;100753.3;;;;-74
2023/03/17 08:02:38;;;;;;;;;;;;;;;8.94;76.20508;100728.9;;;;-74
2023/03/17 08:05:20;;;;;;;5.7;2.4;;;;;;;;;;;;;-74
2023/03/17 08:07:39;;;;;;;;;;;;;;;9.1;76.21289;100706.5;;;;-74
2023/03/17 08:12:38;;;;;;;;;;;;;;;9.23;75.83789;100731.1;;;;-74
2023/03/17 08:17:42;;;;;;;;;;;;;;;9.3;75.17578;100789.7;;;;-73
2023/03/17 08:22:38;;;;;;;;;;;;;;;9.26;75.17969;100772.7;;;;-74
2023/03/17 08:27:38;;;;;;;;;;;;;;;9.3;75.81738;100746.1;;;;-74
2023/03/17 08:32:38;;;;;;;;;;;;;;;9.44;74.96777;100729.3;;;;-73
2023/03/17 08:35:21;;;;;;;5.2;2.6;;;;;;;;;;;;;-74
2023/03/17 08:37:38;;;;;;;;;;;;;;;9.68;76.02539;100722.7;;;;-74
2023/03/17 08:42:38;;;;;;;;;;;;;;;10.05;75.41602;100695.4;;;;-75
2023/03/17 08:47:38;;;;;;;;;;;;;;;10.74;74.00488;100689.9;;;;-73
2023/03/17 08:52:39;;;;;;;;;;;;;;;11.46;72.84863;100689.4;;;;-73
2023/03/17 08:57:38;;;;;;;;;;;;;;;11.81;71.39258;100711.1;;;;-73
2023/03/17 09:02:38;;;;;;;;;;;;;;;12.18;69.82715;100742;;;;-74
2023/03/17 09:05:22;;;;;;;4.8;2.7;;;;;;;;;;;;;-74
2023/03/17 09:07:38;;;;;;;;;;;;;;;12.71;69.92188;100739.7;;;;-74
2023/03/17 09:12:38;;;;;;;;;;;;;;;13.27;67.76758;100740.5;;;;-73
2023/03/17 09:17:38;;;;;;;;;;;;;;;13.64;67.00781;100737.8;;;;-75
2023/03/17 09:22:38;;;;;;;;;;;;;;;13.88;66.84375;100730.6;;;;-73
2023/03/17 09:27:38;;;;;;;;;;;;;;;14.21;65.08887;100730.2;;;;-74
2023/03/17 09:32:38;;;;;;;;;;;;;;;14.5;65.14355;100746.4;;;;-73
2023/03/17 09:35:26;;;;;;;7.9;3.4;;;;;;;;;;;;;-74
2023/03/17 09:37:41;;;;;;;;;;;;;;;14.47;64.33008;100748.4;;;;-73
2023/03/17 09:42:46;;;;;;;;;;;;;;;14.24;64.29883;100760.9;;;;-74
2023/03/17 09:47:57;;;;;;;;;;;;;;;14.16;65.08105;100758.9;;;;-74
2023/03/17 09:52:38;;;;;;;;;;;;;;;14.11;65.57813;100779.2;;;;-74
2023/03/17 09:57:39;;;;;;;;;;;;;;;13.95;66.52832;100780.8;;;;-74
2023/03/17 10:02:42;;;;;;;;;;;;;;;13.68;66.28613;100781.6;;;;-74
2023/03/17 10:05:27;;;;;;;7.7;3.8;;;;;;;;;;;;;-75
2023/03/17 10:07:43;;;;;;;;;;;;;;;13.58;66.23828;100781.1;;;;-74
2023/03/17 10:12:46;;;;;;;;;;;;;;;13.58;66.66406;100791.2;;;;-74
2023/03/17 10:17:40;;;;;;;;;;;;;;;13.66;67.65918;100804.2;;;;-73
2023/03/17 10:22:42;;;;;;;;;;;;;;;13.99;67.50977;100802.9;;;;-74
2023/03/17 10:27:39;;;;;;;;;;;;;;;14.44;66.78223;100802;;;;-74
2023/03/17 10:32:40;;;;;;;;;;;;;;;14.64;66.85742;100803.4;;;;-74
2023/03/17 10:35:28;;;;;;;10.3;4.5;;;;;;;;;;;;;-74
2023/03/17 10:37:38;;;;;;;;;;;;;;;14.64;66.12793;100812.6;;;;-74
2023/03/17 10:42:47;;;;;;;;;;;;;;;14.55;66.5293;100833.1;;;;-74
2023/03/17 10:47:40;;;;;;;;;;;;;;;14.48;67.00195;100836.2;;;;-74
2023/03/17 10:52:41;;;;;;;;;;;;;;;14.42;67.86621;100832.8;;;;-74
2023/03/17 10:57:39;;;;;;;;;;;;;;;14.47;68.2207;100835.8;;;;-73
2023/03/17 11:02:46;;;;;;;;;;;;;;;14.58;68.08105;100827.1;;;;-75
2023/03/17 11:05:31;;;;;;;9.6;4.8;;;;;;;;;;;;;-77
2023/03/17 11:07:42;;;;;;;;;;;;;;;14.86;68.68457;100811.6;;;;-74
2023/03/17 11:12:42;;;;;;;;;;;;;;;15.23;67.38477;100801.1;;;;-76
2023/03/17 11:17:46;;;;;;;;;;;;;;;15.56;66.97559;100793.3;;;;-73
2023/03/17 11:22:40;;;;;;;;;;;;;;;15.64;66.41309;100771.8;;;;-74
2023/03/17 11:27:42;;;;;;;;;;;;;;;15.79;66.05273;100797.4;;;;-74
2023/03/17 11:32:42;;;;;;;;;;;;;;;15.94;66.04199;100797.1;;;;-73
2023/03/17 11:35:40;;;;;;;9;5.1;;;;;;;;;;;;;-74
2023/03/17 11:37:47;;;;;;;;;;;;;;;16.07;65.71289;100794;;;;-74
2023/03/17 11:42:40;;;;;;;;;;;;;;;16.15;65.31934;100785.3;;;;-74
2023/03/17 11:47:45;;;;;;;;;;;;;;;16.21;64.93457;100779.5;;;;-75
2023/03/17 11:52:41;;;;;;;;;;;;;;;16.2;65.56348;100776.9;;;;-73
2023/03/17 11:57:41;;;;;;;;;;;;;;;16.22;65.26172;100759.3;;;;-74
2023/03/17 12:02:41;;;;;;;;;;;;;;;16.19;65.45996;100762;;;;-74
2023/03/17 12:05:36;;;;;;;9.1;4.8;;;;;;;;;;;;;-73
2023/03/17 12:07:40;;;;;;;;;;;;;;;16.16;65.45605;100759;;;;-74
2023/03/17 12:12:41;;;;;;;;;;;;;;;16.17;65.81738;100727.6;;;;-75
2023/03/17 12:17:40;;;;;;;;;;;;;;;16.34;66.91113;100710;;;;-75
2023/03/17 12:22:41;;;;;;;;;;;;;;;16.67;66.51074;100716.9;;;;-74
2023/03/17 12:27:43;;;;;;;;;;;;;;;16.93;67.71191;100720.8;;;;-73
2023/03/17 12:32:42;;;;;;;;;;;;;;;17.21;70.94336;100702.1;;;;-74
2023/03/17 12:35:39;;;;;;;9.6;4.5;;;;;;;;;;;;;-74
2023/03/17 12:37:39;;;;;;;;;;;;;;;17.32;67.63574;100714.2;;;;-74
2023/03/17 12:42:51;;;;;;;;;;;;;;;17.46;69.45117;100725;;;;-73
2023/03/17 12:47:42;;;;;;;;;;;;;;;17.61;67.82813;100736.6;;;;-74
2023/03/17 12:52:49;;;;;;;;;;;;;;;17.63;64.75781;100742.3;;;;-73
2023/03/17 12:57:41;;;;;;;;;;;;;;;17.67;65.87109;100751.6;;;;-73
2023/03/17 13:02:40;;;;;;;;;;;;;;;17.74;66.36816;100756.4;;;;-75
2023/03/17 13:05:41;;;;;;;8.3;4.5;;;;;;;;;;;;;-73
2023/03/17 13:07:40;;;;;;;;;;;;;;;17.73;65.82422;100757.1;;;;-74
2023/03/17 13:12:51;;;;;;;;;;;;;;;17.76;64.89063;100761.7;;;;-73
2023/03/17 13:17:38;;;;;;;;;;;;;;;17.71;64.75879;100762.9;;;;-73
2023/03/17 13:22:43;;;;;;;;;;;;;;;17.64;64.79395;100747.1;;;;-73
2023/03/17 13:27:53;;;;;;;;;;;;;;;17.56;65.36914;100739.2;;;;-73
2023/03/17 13:32:41;;;;;;;;;;;;;;;17.47;66.68652;100713.7;;;;-74
2023/03/17 13:35:45;;;;;;;8.4;4.2;;;;;;;;;;;;;-74
2023/03/17 13:37:48;;;;;;;;;;;;;;;17.36;66.46875;100711.6;;;;-74
2023/03/17 13:42:54;;;;;;;;;;;;;;;17.33;66.91602;100731;;;;-74
2023/03/17 13:47:41;;;;;;;;;;;;;;;17.37;66.53809;100735.9;;;;-74
2023/03/17 13:52:41;;;;;;;;;;;;;;;17.41;67.12988;100745.6;;;;-74
2023/03/17 13:57:42;;;;;;;;;;;;;;;17.43;66.64941;100745.4;;;;-74
2023/03/17 14:02:41;;;;;;;;;;;;;;;17.41;66.60156;100745.1;;;;-75
2023/03/17 14:05:52;;;;;;;8.1;4.1;;;;;;;;;;;;;-74
2023/03/17 14:07:44;;;;;;;;;;;;;;;17.36;67.33789;100744.8;;;;-75
2023/03/17 14:12:42;;;;;;;;;;;;;;;17.35;67.84375;100738.6;;;;-75
2023/03/17 14:17:43;;;;;;;;;;;;;;;17.34;67.38965;100734;;;;-74
2023/03/17 14:22:42;;;;;;;;;;;;;;;17.3;67.64551;100727.3;;;;-74
2023/03/17 14:27:38;;;;;;;;;;;;;;;17.27;67.68359;100724.3;;;;-75
2023/03/17 14:32:38;;;;;;;;;;;;;;;17.23;67.4873;100727.9;;;;-73
2023/03/17 14:35:52;;;;;;;6.6;3.7;;;;;;;;;;;;;-74
2023/03/17 14:37:43;;;;;;;;;;;;;;;17.22;67.74512;100719;;;;-74
2023/03/17 14:42:38;;;;;;;;;;;;;;;17.22;67.58789;100705.9;;;;-74
2023/03/17 14:47:40;;;;;;;;;;;;;;;17.23;67.83691;100706.4;;;;-74
2023/03/17 14:52:40;;;;;;;;;;;;;;;17.25;68.2793;100694.3;;;;-75
2023/03/17 14:57:40;;;;;;;;;;;;;;;17.26;68.22461;100690.2;;;;-74
2023/03/17 15:02:41;;;;;;;;;;;;;;;17.22;67.66699;100681.4;;;;-74
2023/03/17 15:05:53;;;;;;;6.9;3.9;;;;;;;;;;;;;-72
2023/03/17 15:07:40;;;;;;;;;;;;;;;17.21;68.16016;100679.9;;;;-74
2023/03/17 15:12:40;;;;;;;;;;;;;;;17.18;68.77734;100672.4;;;;-73
2023/03/17 15:17:40;;;;;;;;;;;;;;;17.18;68.11035;100669.3;;;;-74
2023/03/17 15:22:45;;;;;;;;;;;;;;;17.08;68.23242;100663.8;;;;-74
2023/03/17 15:27:39;;;;;;;;;;;;;;;17.01;68.29785;100655.6;;;;-74
2023/03/17 15:32:38;;;;;;;;;;;;;;;16.95;68.74023;100654.3;;;;-74
2023/03/17 15:35:55;;;;;;;8.7;4.8;;;;;;;;;;;;;-75
2023/03/17 15:37:38;;;;;;;;;;;;;;;16.87;69.54883;100658.4;;;;-76
2023/03/17 15:42:40;;;;;;;;;;;;;;;16.79;70.28027;100652.3;;;;-74
2023/03/17 15:47:40;;;;;;;;;;;;;;;16.73;70.28125;100660.1;;;;-74
2023/03/17 15:52:38;;;;;;;;;;;;;;;16.64;70.58398;100656.4;;;;-74
2023/03/17 15:57:38;;;;;;;;;;;;;;;16.53;71.41016;100661.2;;;;-73
2023/03/17 16:02:38;;;;;;;;;;;;;;;16.43;73.79883;100658;;;;-75
2023/03/17 16:05:58;;;;;;;9.2;4.9;;;;;;;;;;;;;-73
2023/03/17 16:07:38;;;;;;;;;;;;;;;16.31;74.49805;100664.2;;;;-75
2023/03/17 16:12:45;;;;;;;;;;;;;;;16.2;74.12988;100664.3;;;;-73
2023/03/17 16:17:38;;;;;;;;;;;;;;;16.07;75.18652;100662.1;;;;-75
2023/03/17 16:22:45;;;;;;;;;;;;;;;15.94;75.56836;100667.1;;;;-73
2023/03/17 16:27:38;;;;;;;;;;;;;;;15.82;76.0293;100667.4;;;;-75
2023/03/17 16:32:38;;;;;;;;;;;;;;;15.7;76.90527;100670.9;;;;-75
2023/03/17 16:36:01;;;;;;;11.3;5.4;;;;;;;;;;;;;-75
2023/03/17 16:37:39;;;;;;;;;;;;;;;15.6;76.87793;100677.7;;;;-74
2023/03/17 16:42:40;;;;;;;;;;;;;;;15.51;77.08691;100681.5;;;;-74
2023/03/17 16:47:38;;;;;;;;;;;;;;;15.42;77.10254;100686.2;;;;-74
2023/03/17 16:52:39;;;;;;;;;;;;;;;15.3;77.80078;100691.8;;;;-73
2023/03/17 16:57:38;;;;;;;;;;;;;;;15.2;77.72656;100701.8;;;;-73
2023/03/17 17:02:41;;;;;;;;;;;;;;;15.09;77.86426;100714.3;;;;-75
2023/03/17 17:06:06;;;;;;;11.7;6;;;;;;;;;;;;;-74
2023/03/17 17:07:38;;;;;;;;;;;;;;;15.02;78.15332;100710.3;;;;-74
2023/03/17 17:12:38;;;;;;;;;;;;;;;14.9;78.3877;100709;;;;-74
2023/03/17 17:17:38;;;;;;;;;;;;;;;14.81;78.85449;100707.8;;;;-74
2023/03/17 17:22:38;;;;;;;;;;;;;;;14.71;78.79199;100704.2;;;;-74
2023/03/17 17:27:40;;;;;;;;;;;;;;;14.62;79.45703;100717.3;;;;-74
2023/03/17 17:32:38;;;;;;;;;;;;;;;14.53;79.1377;100714.4;;;;-74
2023/03/17 17:36:06;;;;;;;11.8;6.1;;;;;;;;;;;;;-75
2023/03/17 17:37:38;;;;;;;;;;;;;;;14.44;79.40137;100705.5;;;;-74
2023/03/17 17:42:40;;;;;;;;;;;;;;;14.35;80.3457;100703.7;;;;-75
2023/03/17 17:47:38;;;;;;;;;;;;;;;14.27;80.78809;100708.7;;;;-73
2023/03/17 17:52:38;;;;;;;;;;;;;;;14.19;81.51074;100701.9;;;;-75
2023/03/17 17:57:38;;;;;;;;;;;;;;;14.11;82.57715;100705.3;;;;-74
2023/03/17 18:02:38;;;;;;;;;;;;;;;14.04;83.18945;100696.2;;;;-75
2023/03/17 18:06:08;;;;;;;11;5.6;;;;;;;;;;;;;-77
2023/03/17 18:07:38;;;;;;;;;;;;;;;13.96;83.56348;100696.9;;;;-74
2023/03/17 18:12:43;;;;;;;;;;;;;;;13.86;83.02148;100698.9;;;;-75
2023/03/17 18:17:38;;;;;;;;;;;;;;;13.78;83.29395;100701.8;;;;-73
2023/03/17 18:22:38;;;;;;;;;;;;;;;13.69;83.90234;100702.4;;;;-74
2023/03/17 18:27:38;;;;;;;;;;;;;;;13.62;83.55469;100706;;;;-75
2023/03/17 18:32:41;;;;;;;;;;;;;;;13.53;84.11719;100708.2;;;;-74
2023/03/17 18:36:10;;;;;;;9;5;;;;;;;;;;;;;-75
2023/03/17 18:37:38;;;;;;;;;;;;;;;13.46;84.16797;100709.3;;;;-76
2023/03/17 18:42:37;;;;;;;;;;;;;;;13.38;84.28809;100711;;;;-73
2023/03/17 18:47:40;;;;;;;;;;;;;;;13.3;84.92871;100705.2;;;;-74
2023/03/17 18:52:39;;;;;;;;;;;;;;;13.24;85.08496;100714.4;;;;-74
2023/03/17 18:57:38;;;;;;;;;;;;;;;13.17;85.15918;100710.7;;;;-74
2023/03/17 19:02:39;;;;;;;;;;;;;;;13.1;85.58984;100712.3;;;;-73
2023/03/17 19:06:16;;;;;;;9.9;5;;;;;;;;;;;;;-74
2023/03/17 19:07:39;;;;;;;;;;;;;;;13.04;85.46777;100716;;;;-74
2023/03/17 19:12:38;;;;;;;;;;;;;;;12.99;85.56641;100716.1;;;;-74
2023/03/17 19:17:38;;;;;;;;;;;;;;;12.93;85.76758;100712.1;;;;-74
2023/03/17 19:22:41;;;;;;;;;;;;;;;12.87;85.8457;100722.4;;;;-75
2023/03/17 19:27:38;;;;;;;;;;;;;;;12.82;85.5791;100721.9;;;;-75
2023/03/17 19:32:38;;;;;;;;;;;;;;;12.76;85.81152;100722.4;;;;-74
2023/03/17 19:36:15;;;;;;;8;4.7;;;;;;;;;;;;;-73
2023/03/17 19:37:38;;;;;;;;;;;;;;;12.7;85.95605;100721.2;;;;-74
2023/03/17 19:42:38;;;;;;;;;;;;;;;12.65;85.75879;100715.3;;;;-74
2023/03/17 19:47:38;;;;;;;;;;;;;;;12.6;85.83691;100717.8;;;;-75
2023/03/17 19:52:39;;;;;;;;;;;;;;;12.55;86.07031;100703.2;;;;-74
2023/03/17 19:57:38;;;;;;;;;;;;;;;12.48;86.10254;100700.4;;;;-75
2023/03/17 20:02:38;;;;;;;;;;;;;;;12.43;86.03613;100696.4;;;;-73
2023/03/17 20:06:16;;;;;;;8.2;4.6;;;;;;;;;;;;;-74
2023/03/17 20:07:38;;;;;;;;;;;;;;;12.38;85.93652;100704.4;;;;-74
2023/03/17 20:12:39;;;;;;;;;;;;;;;12.33;85.89453;100697.1;;;;-73
2023/03/17 20:17:38;;;;;;;;;;;;;;;12.28;85.92969;100691;;;;-74
2023/03/17 20:22:39;;;;;;;;;;;;;;;12.24;85.72363;100702.4;;;;-73
2023/03/17 20:27:39;;;;;;;;;;;;;;;12.2;85.74805;100705.6;;;;-73
2023/03/17 20:32:38;;;;;;;;;;;;;;;12.17;86.0752;100701.5;;;;-72
2023/03/17 20:36:17;;;;;;;10.1;4.7;;;;;;;;;;;;;-74
2023/03/17 20:37:38;;;;;;;;;;;;;;;12.14;85.95898;100710.7;;;;-74
2023/03/17 20:42:38;;;;;;;;;;;;;;;12.12;85.82031;100720.8;;;;-75
2023/03/17 20:47:37;;;;;;;;;;;;;;;12.08;85.87988;100730.7;;;;-74
2023/03/17 20:52:41;;;;;;;;;;;;;;;12.04;85.78223;100734.7;;;;-73
2023/03/17 20:57:39;;;;;;;;;;;;;;;11.99;85.85059;100732.5;;;;-75
2023/03/17 21:02:38;;;;;;;;;;;;;;;11.94;85.85156;100738;;;;-73
2023/03/17 21:06:21;;;;;;;9.5;5.3;;;;;;;;;;;;;-73
2023/03/17 21:07:38;;;;;;;;;;;;;;;11.89;86.03027;100737.8;;;;-75
2023/03/17 21:12:38;;;;;;;;;;;;;;;11.82;85.99609;100738.9;;;;-73
2023/03/17 21:17:38;;;;;;;;;;;;;;;11.78;85.96484;100742.5;;;;-74
2023/03/17 21:22:38;;;;;;;;;;;;;;;11.75;85.98145;100756.5;;;;-74
2023/03/17 21:27:38;;;;;;;;;;;;;;;11.7;86.00391;100753;;;;-74
2023/03/17 21:32:38;;;;;;;;;;;;;;;11.66;86.01758;100767;;;;-74
2023/03/17 21:36:21;;;;;;;10.9;6.4;;;;;;;;;;;;;-73
2023/03/17 21:37:38;;;;;;;;;;;;;;;11.61;86.01953;100770.3;;;;-74
2023/03/17 21:42:38;;;;;;;;;;;;;;;11.57;86.03613;100774.9;;;;-74
2023/03/17 21:47:39;;;;;;;;;;;;;;;11.54;86.12695;100762.9;;;;-74
2023/03/17 21:52:38;;;;;;;;;;;;;;;11.51;85.93359;100761.7;;;;-75
2023/03/17 21:57:38;;;;;;;;;;;;;;;11.46;86.11328;100765.3;;;;-73
2023/03/17 22:02:38;;;;;;;;;;;;;;;11.39;85.93457;100761.2;;;;-74
2023/03/17 22:06:25;;;;;;;15.6;8.5;;;;;;;;;;;;;-73
2023/03/17 22:07:39;;;;;;;;;;;;;;;11.32;86.05078;100762.9;;;;-74
2023/03/17 22:12:38;;;;;;;;;;;;;;;11.22;85.83398;100761.8;;;;-73
2023/03/17 22:17:38;;;;;;;;;;;;;;;11.15;85.04395;100772.1;;;;-74
2023/03/17 22:22:38;;;;;;;;;;;;;;;11.08;85.87207;100783.9;;;;-73
2023/03/17 22:27:37;;;;;;;;;;;;;;;11;86.0332;100798;;;;-74
2023/03/17 22:32:38;;;;;;;;;;;;;;;10.94;85.52441;100809.3;;;;-73
2023/03/17 22:36:25;;;;;;;19.3;9.1;;;;;;;;;;;;;-75
2023/03/17 22:37:37;;;;;;;;;;;;;;;10.92;85.70703;100812.2;;;;-75
2023/03/17 22:42:38;;;;;;;;;;;;;;;10.9;86.04785;100815.1;;;;-76
2023/03/17 22:47:38;;;;;;;;;;;;;;;10.9;86.26758;100820.6;;;;-74
2023/03/17 22:52:40;;;;;;;;;;;;;;;10.89;86.16602;100820.6;;;;-74
2023/03/17 22:57:37;;;;;;;;;;;;;;;10.89;86.25488;100819.8;;;;-74
2023/03/17 23:02:38;;;;;;;;;;;;;;;10.86;86.14746;100824.4;;;;-74
2023/03/17 23:06:26;;;;;;;16.7;8.8;;;;;;;;;;;;;-75
2023/03/17 23:07:41;;;;;;;;;;;;;;;10.83;86.71875;100825.7;;;;-73
2023/03/17 23:12:38;;;;;;;;;;;;;;;10.74;86.52441;100832;;;;-73
2023/03/17 23:17:37;;;;;;;;;;;;;;;10.69;86.38965;100834;;;;-73
2023/03/17 23:22:38;;;;;;;;;;;;;;;10.61;87.0166;100826.1;;;;-73
2023/03/17 23:27:38;;;;;;;;;;;;;;;10.55;86.93945;100822.7;;;;-75
2023/03/17 23:32:38;;;;;;;;;;;;;;;10.48;86.64844;100833.8;;;;-74
2023/03/17 23:36:28;;;;;;;17.8;9;;;;;;;;;;;;;-74
2023/03/17 23:37:38;;;;;;;;;;;;;;;10.39;86.18945;100833.9;;;;-74
2023/03/17 23:42:39;;;;;;;;;;;;;;;10.29;86.11426;100835.6;;;;-74
2023/03/17 23:47:38;;;;;;;;;;;;;;;10.2;87.16699;100848.7;;;;-74
2023/03/17 23:52:37;;;;;;;;;;;;;;;10.1;86.09863;100846.4;;;;-74
2023/03/17 23:57:39;;;;;;;;;;;;;;;9.99;86.6416;100852.4;;;;-74
